LEVX/VGO METAR and TAF weather

Enter ICAO airport designator
Station Type Date Time Source
LEVX METAR 2022/07/01 01:00 UTC NOAA

LEVX 010100Z 36003KT CAVOK 13/12 Q1019 NOSIG


Station Type Date Time Source
LEVX Decoded METAR 2022/07/01 01:00 UTC NOAA

Vigo / Peinador, Spain (LEVX) 42-13N 008-38W 255M
Jun 30, 2022 - 09:00 PM EDT / 2022.07.01 0100 UTC
Wind: from the N (360 degrees) at 3 MPH (3 KT):0
Visibility: greater than 7 mile(s):0
Temperature: 55 F (13 C)
Dew Point: 53 F (12 C)
Relative Humidity: 93%
Pressure (altimeter): 30.09 in. Hg (1019 hPa)
ob: LEVX 010100Z 36003KT CAVOK 13/12 Q1019 NOSIG
cycle: 1

Station Type Date Time Source
LEVX TAF 2022/06/30 18:27 UTC NOAA

TAF LEVX 301700Z 3018/0118 29007KT 9999 FEW030 TX24/0113Z TN11/0105Z PROB30
TEMPO 0100/0106 3000 BR BKN010

Example: see airport list